Latest Coastal Weather Observations for Samuel Hill

IDQ60701

Issued at 1:22 am EST Friday 5 March 2021 (issued every 10 minutes, with the page automatically refreshed every 10 minutes)

About coastal observations | Map of coastal stations | Coastal observations for QLD | Marine services | Other Formats
Station Details ID: 033308 Name: SAMUEL HILL AERO Lat: -22.74 Lon: 150.66 Height: 31.0 m
Data from the previous 72 hours. | See also: Recent months at Samuel Hill
Date/Time
EST
Wind Sea
Height
m
Swell Vis
km
Cloud Weather Temp
°C
Press
MSL
hPa
Rain since
9am
mm
Dir  Spd
kts
Gust
kts
Height
m
Period
s
Dir
05/01:00am ESE 9 15 - - - - 10 Partly cloudy - 24.8 1006.6 1.6
05/12:30am ESE 10 17 - - - - 10 Partly cloudy - 24.7 1006.8 1.6
05/12:00am SE 10 15 - - - - 10 Partly cloudy - 25.0 1007.1 1.6
 
Date/Time
EST
Wind Sea
Height
m
Swell Vis
km
Cloud Weather Temp
°C
Press
MSL
hPa
Rain since
9am
mm
Dir  Spd
kts
Gust
kts
Height
m
Period
s
Dir
04/11:30pm SE 11 17 - - - - 10 Partly cloudy - 25.1 1007.3 1.6
04/11:00pm ESE 12 20 - - - - 10 Partly cloudy - 25.3 1007.3 1.6
04/10:30pm ESE 12 19 - - - - 10 - - 25.4 1007.3 1.6
04/10:00pm ESE 11 20 - - - - 10 - - 25.4 1007.3 1.6
04/09:30pm ESE 13 23 - - - - 10 Partly cloudy - 25.6 1007.3 1.6
04/09:00pm ESE 12 19 - - - - 10 Cloudy - 25.6 1007.3 1.6
04/08:30pm ESE 10 15 - - - - 10 Partly cloudy - 25.4 1007.2 1.6
04/08:00pm ESE 11 17 - - - - 10 Partly cloudy - 25.3 1006.9 1.6
04/07:30pm ESE 12 20 - - - - 10 - - 25.4 1006.7 1.6
04/07:00pm ESE 11 17 - - - - 10 Partly cloudy - 25.6 1006.6 1.6
04/06:30pm SE 12 19 - - - - 10 Partly cloudy - 25.6 1006.4 1.6
04/06:00pm SE 10 18 - - - - 10 Mostly cloudy Rain 25.7 1006.1 1.6
04/05:30pm SE 11 23 - - - - 10 Partly cloudy - 26.1 1005.8 1.6
04/05:00pm SE 13 21 - - - - 10 Partly cloudy - 26.4 1005.8 1.6
04/04:30pm SE 13 24 - - - - 10 Partly cloudy - 26.6 1005.6 1.6
04/04:00pm SE 16 24 - - - - 10 Partly cloudy - 26.6 1005.5 1.6
04/03:30pm SE 13 24 - - - - 10 Partly cloudy - 27.7 1005.4 1.6
04/03:05pm SE 15 27 - - - - 10 Partly cloudy - 27.8 1005.4 1.6
04/03:00pm ESE 12 23 - - - - 10 Cloudy - 28.6 1005.4 1.6
04/02:30pm SE 15 24 - - - - 10 Partly cloudy - 27.9 1005.7 1.6
04/02:00pm SE 12 19 - - - - 10 Partly cloudy - 27.3 1005.8 1.6
04/01:30pm SE 13 23 - - - - 10 Partly cloudy - 27.6 1006.0 1.4
04/01:00pm ESE 13 22 - - - - 10 Partly cloudy - 28.2 1006.1 1.4
04/12:30pm ESE 13 19 - - - - 10 Partly cloudy - 27.7 1006.6 1.4
04/12:00pm ESE 11 23 - - - - 10 Cloudy Rain 26.7 1006.8 1.4
04/11:30am ESE 9 16 - - - - 10 Partly cloudy - 25.6 1007.1 1.4
04/11:18am ESE 4 8 - - - - 10 Partly cloudy - 24.4 1007.4 1.4
04/11:00am SE 6 10 - - - - 6 Partly cloudy - 23.9 1007.5 1.4
04/10:59am SE 7 10 - - - - 7 Partly cloudy - 23.8 1007.5 1.2
04/10:34am SE 7 15 - - - - 10 Partly cloudy - 24.0 1007.8 0.6
04/10:30am ESE 6 11 - - - - 10 Partly cloudy - 24.0 1007.9 0.6
04/10:04am ESE 11 17 - - - - 7 Partly cloudy - 23.7 1008.1 0.4
04/10:03am E 10 17 - - - - 9 Partly cloudy - 23.8 - 0.4
04/10:02am ESE 10 17 - - - - 9 Partly cloudy - 23.9 1008.1 0.2
04/10:00am ESE 10 17 - - - - 10 Partly cloudy - 24.1 1008.1 0.2
04/09:31am SE 11 19 - - - - 10 Partly cloudy - 25.2 - 0.0
04/09:30am SE 10 16 - - - - 10 Partly cloudy - 25.2 1007.8 0.0
04/09:18am SE 14 24 - - - - 10 Partly cloudy - 24.2 1007.7 0.0
04/09:17am SE 14 24 - - - - 10 Partly cloudy - 24.1 1007.7 0.0
04/09:00am SE 11 19 - - - - 10 Cloudy Showers 24.1 1007.7 9.0
04/08:30am SE 9 17 - - - - 10 Partly cloudy - 23.8 1007.4 9.0
04/08:00am SE 8 13 - - - - 10 Cloudy - 23.3 1007.1 8.8
04/07:44am S 7 10 - - - - 9 Partly cloudy - 23.2 1006.8 8.8
04/07:35am SE 5 9 - - - - 9 Partly cloudy - 23.0 1006.7 8.4
04/07:31am ESE 4 7 - - - - 3 Partly cloudy - 22.9 - 8.4
04/07:30am ESE 5 7 - - - - 3 Partly cloudy - 22.9 1006.6 8.4
04/07:00am SE 6 13 - - - - 4 Partly cloudy - 22.6 1006.3 3.0
04/06:52am SSE 8 13 - - - - 6 Partly cloudy - 22.7 1006.4 2.0
04/06:30am S 4 5 - - - - 10 Partly cloudy - 24.3 1005.9 0.2
04/06:00am S 3 5 - - - - 10 Partly cloudy - 24.1 1005.8 0.2
04/05:30am SSE 4 5 - - - - 10 Partly cloudy - 24.1 1005.6 0.2
04/05:00am SSE 3 4 - - - - 10 Partly cloudy - 23.9 1005.4 0.2
04/04:30am SE 4 7 - - - - 10 - - 24.7 1005.2 0.2
04/04:00am SE 5 6 - - - - 10 Partly cloudy - 24.5 1005.2 0.2
04/03:30am SE 5 6 - - - - 10 Partly cloudy - 24.6 1005.3 0.2
04/03:00am SE 6 9 - - - - 10 - Rain 24.9 1005.1 0.2
04/02:30am ESE 6 10 - - - - 10 Partly cloudy - 24.5 1005.4 0.2
04/02:00am SE 6 9 - - - - 10 Partly cloudy - 25.0 1005.6 0.2
04/01:30am SE 7 10 - - - - 10 Partly cloudy - 25.1 1005.8 0.2
04/01:00am SE 7 10 - - - - 10 Partly cloudy - 25.4 1006.1 0.2
04/12:30am SE 6 10 - - - - 10 - - 25.6 1006.3 0.2
04/12:00am SE 7 11 - - - - 10 Mostly cloudy - 25.7 1006.5 0.2
 
Date/Time
EST
Wind Sea
Height
m
Swell Vis
km
Cloud Weather Temp
°C
Press
MSL
hPa
Rain since
9am
mm
Dir  Spd
kts
Gust
kts
Height
m
Period
s
Dir
03/11:30pm SE 6 10 - - - - 10 Partly cloudy - 25.2 1006.7 0.2
03/11:00pm SE 5 7 - - - - 10 Partly cloudy - 25.1 1006.9 0.2
03/10:30pm SE 5 7 - - - - 10 - - 24.8 1006.8 0.2
03/10:00pm SE 5 6 - - - - 10 Partly cloudy - 23.9 1007.0 0.2
03/09:30pm SSE 4 5 - - - - 10 Partly cloudy - 24.3 1006.9 0.2
03/09:00pm SSE 5 6 - - - - 10 Mostly clear - 24.3 1006.9 0.2
03/08:30pm SE 4 6 - - - - 10 Partly cloudy - 24.7 1006.7 0.2
03/08:00pm SE 5 7 - - - - 10 - - 24.8 1006.6 0.2
03/07:30pm SE 5 6 - - - - 10 - - 25.3 1006.6 0.2
03/07:00pm ESE 6 8 - - - - 10 - - 25.8 1006.5 0.2
03/06:30pm ESE 7 10 - - - - 10 - - 26.2 1006.2 0.2
03/06:00pm ESE 7 11 - - - - 10 Mostly clear - 26.9 1005.9 0.2
03/05:30pm E 11 14 - - - - 10 - - 27.5 1005.6 0.2
03/05:00pm E 10 18 - - - - 10 - - 28.1 1005.5 0.2
03/04:30pm ENE 11 18 - - - - 10 - - 28.7 1005.5 0.2
03/04:00pm E 9 13 - - - - 10 - - 29.3 1005.4 0.2
03/03:30pm SE 10 16 - - - - 10 - - 29.5 1005.7 0.2
03/03:00pm ESE 10 18 - - - - 10 Mostly clear - 30.2 1005.7 0.2
03/02:30pm ESE 12 19 - - - - 10 Partly cloudy - 29.1 1006.0 0.2
03/02:00pm ESE 11 18 - - - - 10 Partly cloudy - 29.5 1006.2 0.2
03/01:30pm ESE 13 20 - - - - 10 Partly cloudy - 30.1 1006.4 0.2
03/01:00pm SE 12 19 - - - - 10 Partly cloudy - 30.2 1006.8 0.2
03/12:30pm SE 12 18 - - - - 10 Partly cloudy - 29.9 1007.2 0.2
03/12:00pm ESE 10 16 - - - - 10 Mostly clear - 30.3 1007.6 0.2
03/11:30am ESE 11 16 - - - - 10 Partly cloudy - 30.5 1008.0 0.2
03/11:00am ESE 12 18 - - - - 10 Partly cloudy - 30.3 1008.2 0.2
03/10:30am ESE 11 18 - - - - 10 Partly cloudy - 30.2 1008.3 0.0
03/10:00am ESE 11 18 - - - - 10 Partly cloudy - 29.3 1008.5 0.0
03/09:30am ESE 11 18 - - - - 10 Partly cloudy - 29.2 1008.7 0.0
03/09:00am ESE 10 15 - - - - 10 Mostly clear Rain 28.5 1008.7 0.2
03/08:30am SE 9 15 - - - - 10 Partly cloudy - 27.3 1008.5 0.2
03/08:00am SE 8 16 - - - - 10 Partly cloudy - 26.8 1008.3 0.2
03/07:30am SSE 6 9 - - - - 10 Partly cloudy - 25.7 1008.2 0.2
03/07:00am SSE 5 7 - - - - 10 Partly cloudy - 24.6 1007.7 0.2
03/06:30am SSE 4 5 - - - - 10 Partly cloudy - 24.0 1007.4 0.2
03/06:00am SSE 4 5 - - - - 10 Cloudy - 23.7 1007.3 0.2
03/05:30am SSE 4 5 - - - - 10 Partly cloudy - 23.4 1007.2 0.2
03/05:00am SSE 5 6 - - - - 10 - - 23.5 1007.0 0.2
03/04:30am SSE 6 7 - - - - 10 - - 23.6 1006.6 0.0
03/04:00am SSE 6 7 - - - - 10 Partly cloudy - 23.7 1006.4 0.0
03/03:30am SSE 5 7 - - - - 10 Partly cloudy - 23.6 1006.0 0.0
03/03:00am SSE 6 7 - - - - 10 Mostly clear - 23.3 1006.0 0.0
03/02:30am SSE 5 6 - - - - 10 Partly cloudy - 23.2 1006.2 0.0
03/02:00am S 6 7 - - - - 10 - - 23.2 1006.3 0.0
03/01:30am SE 5 6 - - - - 10 - - 23.2 1006.2 0.0
03/01:00am SE 6 7 - - - - 10 - - 23.1 1006.3 0.0
03/12:30am SSE 6 6 - - - - 10 Partly cloudy - 23.2 1006.7 0.0
03/12:00am SE 4 7 - - - - 10 Partly cloudy - 22.9 1007.0 0.0
 
Date/Time
EST
Wind Sea
Height
m
Swell Vis
km
Cloud Weather Temp
°C
Press
MSL
hPa
Rain since
9am
mm
Dir  Spd
kts
Gust
kts
Height
m
Period
s
Dir
02/11:30pm SE 3 4 - - - - 10 Partly cloudy - 22.8 1007.4 0.0
02/11:00pm SE 4 5 - - - - 10 Partly cloudy - 23.1 1007.6 0.0
02/10:30pm SSE 3 4 - - - - 10 - - 23.4 1007.5 0.0
02/10:00pm S 4 5 - - - - 10 - - 24.0 1007.7 0.0
02/09:30pm SSE 4 6 - - - - 10 Partly cloudy - 24.0 1007.4 0.0
02/09:00pm SSE 5 6 - - - - 10 Mostly clear - 24.0 1007.3 0.0
02/08:30pm SE 5 6 - - - - 10 - - 23.9 1006.8 0.0
02/08:00pm SE 5 6 - - - - 10 - - 24.1 1006.5 0.0
02/07:30pm SE 5 6 - - - - 10 - - 24.7 1006.4 0.0
02/07:00pm SE 5 6 - - - - 10 - - 25.0 1006.4 0.0
02/06:30pm ESE 4 5 - - - - 10 - - 25.7 1006.1 0.0
02/06:00pm SE 6 9 - - - - 10 Mostly clear - 26.8 1005.8 0.0
02/05:30pm ESE 7 14 - - - - 10 - - 27.6 1005.8 0.0
02/05:00pm ESE 9 15 - - - - 10 Partly cloudy - 28.5 1005.8 0.0
02/04:30pm ESE 9 16 - - - - 10 Partly cloudy - 28.7 1005.9 0.0
02/04:00pm SE 11 17 - - - - 10 - - 28.6 1006.0 0.0
02/03:30pm ESE 12 22 - - - - 10 Partly cloudy - 29.0 1006.0 0.0
02/03:00pm ESE 10 19 - - - - 10 Cloudy - 29.3 1006.2 0.0
02/02:30pm SE 13 20 - - - - 10 Partly cloudy - 28.5 1006.3 0.0
02/02:00pm SE 11 19 - - - - 10 Partly cloudy - 29.2 1006.4 0.0
02/01:30pm SE 12 18 - - - - 10 Partly cloudy - 29.6 1006.3 0.0
02/01:00pm ESE 10 17 - - - - 10 Partly cloudy - 29.0 1006.7 0.0
02/12:30pm ESE 11 17 - - - - 10 Partly cloudy - 29.1 1006.8 0.0
02/12:00pm SE 11 17 - - - - 10 Cloudy - 29.6 1007.1 0.0
02/11:30am ESE 10 18 - - - - 10 Partly cloudy - 29.3 1007.5 0.0
02/11:00am SE 11 16 - - - - 10 Partly cloudy - 28.9 1007.8 0.0
02/10:30am SE 10 15 - - - - 10 Partly cloudy - 28.2 1008.0 0.0
02/10:00am SE 9 14 - - - - 10 Partly cloudy - 27.9 1008.3 0.0
02/09:30am SE 10 15 - - - - 10 Partly cloudy - 27.7 1008.3 0.0
02/09:00am SE 9 14 - - - - 10 Mostly cloudy - 27.8 1008.1 0.4
02/08:30am SE 8 15 - - - - 10 Partly cloudy - 27.8 1007.9 0.4
02/08:00am SSE 7 10 - - - - 10 - - 26.9 1007.8 0.4
02/07:30am SSE 5 7 - - - - 10 Partly cloudy - 25.5 1007.8 0.4
02/07:00am SSE 4 6 - - - - 10 - - 25.1 1007.4 0.4
02/06:30am S 5 7 - - - - 10 Partly cloudy - 25.2 1006.9 0.4
02/06:00am SE 5 8 - - - - 10 Cloudy Rain 25.5 1006.6 0.4
02/05:30am ESE 5 9 - - - - 10 Partly cloudy - 25.7 1006.3 0.4
02/05:00am SE 5 7 - - - - 10 - - 25.6 1006.1 0.4
02/04:30am ESE 6 9 - - - - 10 Partly cloudy - 26.0 1005.7 0.4
02/04:00am SE 7 11 - - - - 10 Partly cloudy - 26.0 1005.5 0.4
02/03:30am ESE 7 10 - - - - 10 Partly cloudy - 26.1 1005.5 0.4
02/03:00am ESE 7 13 - - - - 10 Cloudy - 26.1 1005.5 0.4
02/02:30am ESE 9 14 - - - - 10 - - 26.1 1005.4 0.4
02/02:00am ESE 9 12 - - - - 10 Partly cloudy - 26.2 1005.6 0.4
02/01:30am ESE 9 16 - - - - 10 Partly cloudy - 26.2 1005.9 0.4

Other formats

Comma delimited format used in spreadsheet applications
http://www.bom.gov.au/fwo/IDQ60701/IDQ60701.94370.axf

JavaScript Object Notation format (JSON) in row-major order
http://www.bom.gov.au/fwo/IDQ60701/IDQ60701.94370.json

Data quality

Most of these data are generated automatically and are frequently updated. Quality checks on data are not normally performed. It is possible for incorrect values to appear. Refer to information at About Latest Weather Observations and please check the disclaimer before using these data.